sensor_id;sensor_type;location;lat;lon;timestamp;P1;durP1;ratioP1;P2;durP2;ratioP2
4748;SDS011;2388;53.582;9.962;2023-11-18T00:00:15;4.90;;;4.50;;
4748;SDS011;2388;53.582;9.962;2023-11-18T00:02:42;6.20;;;3.80;;
4748;SDS011;2388;53.582;9.962;2023-11-18T00:05:08;4.03;;;3.73;;
4748;SDS011;2388;53.582;9.962;2023-11-18T00:07:34;5.47;;;3.97;;
4748;SDS011;2388;53.582;9.962;2023-11-18T00:10:00;3.97;;;3.63;;
4748;SDS011;2388;53.582;9.962;2023-11-18T00:12:25;5.27;;;4.23;;
4748;SDS011;2388;53.582;9.962;2023-11-18T00:14:51;3.43;;;3.13;;
4748;SDS011;2388;53.582;9.962;2023-11-18T00:17:16;4.90;;;4.40;;
4748;SDS011;2388;53.582;9.962;2023-11-18T00:19:42;4.00;;;3.70;;
4748;SDS011;2388;53.582;9.962;2023-11-18T00:22:08;5.23;;;3.47;;
4748;SDS011;2388;53.582;9.962;2023-11-18T00:24:33;3.50;;;3.30;;
4748;SDS011;2388;53.582;9.962;2023-11-18T00:26:59;3.93;;;3.50;;
4748;SDS011;2388;53.582;9.962;2023-11-18T00:29:30;3.47;;;3.20;;
4748;SDS011;2388;53.582;9.962;2023-11-18T00:31:59;3.50;;;3.20;;
4748;SDS011;2388;53.582;9.962;2023-11-18T00:34:28;4.70;;;3.50;;
4748;SDS011;2388;53.582;9.962;2023-11-18T00:36:54;3.80;;;3.53;;
4748;SDS011;2388;53.582;9.962;2023-11-18T00:39:22;3.87;;;3.57;;
4748;SDS011;2388;53.582;9.962;2023-11-18T00:41:48;4.20;;;3.80;;
4748;SDS011;2388;53.582;9.962;2023-11-18T00:44:14;3.70;;;3.40;;
4748;SDS011;2388;53.582;9.962;2023-11-18T00:46:39;4.07;;;3.67;;
4748;SDS011;2388;53.582;9.962;2023-11-18T00:49:05;3.43;;;3.13;;
4748;SDS011;2388;53.582;9.962;2023-11-18T00:51:31;4.10;;;3.80;;
4748;SDS011;2388;53.582;9.962;2023-11-18T00:53:56;4.10;;;3.80;;
4748;SDS011;2388;53.582;9.962;2023-11-18T00:56:22;3.70;;;3.40;;
4748;SDS011;2388;53.582;9.962;2023-11-18T00:58:48;4.13;;;3.80;;
4748;SDS011;2388;53.582;9.962;2023-11-18T01:01:13;3.73;;;3.43;;
4748;SDS011;2388;53.582;9.962;2023-11-18T01:03:42;3.80;;;3.50;;
4748;SDS011;2388;53.582;9.962;2023-11-18T01:06:09;4.43;;;4.03;;
4748;SDS011;2388;53.582;9.962;2023-11-18T01:08:34;3.83;;;3.53;;
4748;SDS011;2388;53.582;9.962;2023-11-18T01:10:59;4.23;;;3.83;;
4748;SDS011;2388;53.582;9.962;2023-11-18T01:13:25;4.17;;;3.87;;
4748;SDS011;2388;53.582;9.962;2023-11-18T01:15:51;5.57;;;3.80;;
4748;SDS011;2388;53.582;9.962;2023-11-18T01:18:17;4.37;;;3.97;;
4748;SDS011;2388;53.582;9.962;2023-11-18T01:20:42;5.57;;;4.70;;
4748;SDS011;2388;53.582;9.962;2023-11-18T01:23:08;4.80;;;4.40;;
4748;SDS011;2388;53.582;9.962;2023-11-18T01:25:33;5.47;;;4.10;;
4748;SDS011;2388;53.582;9.962;2023-11-18T01:27:59;6.23;;;5.20;;
4748;SDS011;2388;53.582;9.962;2023-11-18T01:30:25;3.93;;;3.63;;
4748;SDS011;2388;53.582;9.962;2023-11-18T01:32:51;3.93;;;3.70;;
4748;SDS011;2388;53.582;9.962;2023-11-18T01:35:17;4.07;;;3.67;;
4748;SDS011;2388;53.582;9.962;2023-11-18T01:37:44;4.13;;;3.80;;
4748;SDS011;2388;53.582;9.962;2023-11-18T01:40:10;4.40;;;4.10;;
4748;SDS011;2388;53.582;9.962;2023-11-18T01:42:38;3.87;;;3.67;;
4748;SDS011;2388;53.582;9.962;2023-11-18T01:45:03;5.17;;;4.67;;
4748;SDS011;2388;53.582;9.962;2023-11-18T01:47:31;4.23;;;3.70;;
4748;SDS011;2388;53.582;9.962;2023-11-18T01:49:59;6.10;;;4.43;;
4748;SDS011;2388;53.582;9.962;2023-11-18T01:52:26;6.63;;;4.30;;
4748;SDS011;2388;53.582;9.962;2023-11-18T01:54:54;4.80;;;4.40;;
4748;SDS011;2388;53.582;9.962;2023-11-18T01:57:21;4.43;;;4.03;;
4748;SDS011;2388;53.582;9.962;2023-11-18T01:59:46;5.27;;;4.77;;
4748;SDS011;2388;53.582;9.962;2023-11-18T02:02:12;4.03;;;3.73;;
4748;SDS011;2388;53.582;9.962;2023-11-18T02:04:38;6.60;;;4.30;;
4748;SDS011;2388;53.582;9.962;2023-11-18T02:07:04;11.20;;;4.00;;
4748;SDS011;2388;53.582;9.962;2023-11-18T02:09:34;5.47;;;4.80;;
4748;SDS011;2388;53.582;9.962;2023-11-18T02:14:48;5.40;;;4.40;;
4748;SDS011;2388;53.582;9.962;2023-11-18T02:17:16;4.43;;;3.87;;
4748;SDS011;2388;53.582;9.962;2023-11-18T02:19:44;4.03;;;3.60;;
4748;SDS011;2388;53.582;9.962;2023-11-18T02:22:10;4.90;;;4.50;;
4748;SDS011;2388;53.582;9.962;2023-11-18T02:24:37;5.03;;;4.00;;
4748;SDS011;2388;53.582;9.962;2023-11-18T02:27:03;4.50;;;4.07;;
4748;SDS011;2388;53.582;9.962;2023-11-18T02:29:34;6.47;;;4.43;;
4748;SDS011;2388;53.582;9.962;2023-11-18T02:32:15;3.60;;;3.30;;
4748;SDS011;2388;53.582;9.962;2023-11-18T02:35:01;4.43;;;4.03;;
4748;SDS011;2388;53.582;9.962;2023-11-18T02:37:30;4.77;;;4.30;;
4748;SDS011;2388;53.582;9.962;2023-11-18T02:40:00;4.80;;;4.40;;
4748;SDS011;2388;53.582;9.962;2023-11-18T02:42:33;5.37;;;4.43;;
4748;SDS011;2388;53.582;9.962;2023-11-18T02:45:01;4.37;;;3.97;;
4748;SDS011;2388;53.582;9.962;2023-11-18T02:47:27;4.30;;;3.90;;
4748;SDS011;2388;53.582;9.962;2023-11-18T02:49:54;5.47;;;3.63;;
4748;SDS011;2388;53.582;9.962;2023-11-18T02:52:31;4.57;;;3.80;;
4748;SDS011;2388;53.582;9.962;2023-11-18T02:58:29;5.20;;;3.50;;
4748;SDS011;2388;53.582;9.962;2023-11-18T03:00:55;4.00;;;3.70;;
4748;SDS011;2388;53.582;9.962;2023-11-18T03:03:21;3.90;;;3.60;;
4748;SDS011;2388;53.582;9.962;2023-11-18T03:05:46;4.87;;;4.47;;
4748;SDS011;2388;53.582;9.962;2023-11-18T03:08:14;6.07;;;5.07;;
4748;SDS011;2388;53.582;9.962;2023-11-18T03:10:40;8.00;;;5.00;;
4748;SDS011;2388;53.582;9.962;2023-11-18T03:13:09;4.97;;;4.57;;
4748;SDS011;2388;53.582;9.962;2023-11-18T03:15:34;5.20;;;4.40;;
4748;SDS011;2388;53.582;9.962;2023-11-18T03:18:00;5.40;;;4.90;;
4748;SDS011;2388;53.582;9.962;2023-11-18T03:20:26;4.83;;;4.43;;
4748;SDS011;2388;53.582;9.962;2023-11-18T03:22:52;5.00;;;4.57;;
4748;SDS011;2388;53.582;9.962;2023-11-18T03:25:18;4.73;;;4.43;;
4748;SDS011;2388;53.582;9.962;2023-11-18T03:27:46;4.80;;;4.40;;
4748;SDS011;2388;53.582;9.962;2023-11-18T03:30:12;5.37;;;4.93;;
4748;SDS011;2388;53.582;9.962;2023-11-18T03:32:38;5.10;;;4.60;;
4748;SDS011;2388;53.582;9.962;2023-11-18T03:35:05;4.40;;;3.93;;
4748;SDS011;2388;53.582;9.962;2023-11-18T03:37:35;4.90;;;4.40;;
4748;SDS011;2388;53.582;9.962;2023-11-18T03:40:03;4.80;;;4.30;;
4748;SDS011;2388;53.582;9.962;2023-11-18T03:42:30;4.57;;;3.90;;
4748;SDS011;2388;53.582;9.962;2023-11-18T03:44:56;6.70;;;4.70;;
4748;SDS011;2388;53.582;9.962;2023-11-18T03:47:22;6.50;;;4.50;;
4748;SDS011;2388;53.582;9.962;2023-11-18T03:49:49;4.77;;;4.37;;
4748;SDS011;2388;53.582;9.962;2023-11-18T03:52:15;5.43;;;5.03;;
4748;SDS011;2388;53.582;9.962;2023-11-18T03:54:40;4.97;;;4.47;;
4748;SDS011;2388;53.582;9.962;2023-11-18T03:57:06;5.03;;;4.63;;
4748;SDS011;2388;53.582;9.962;2023-11-18T03:59:32;4.87;;;4.43;;
4748;SDS011;2388;53.582;9.962;2023-11-18T04:01:57;5.37;;;4.87;;
4748;SDS011;2388;53.582;9.962;2023-11-18T04:04:23;4.60;;;4.20;;
4748;SDS011;2388;53.582;9.962;2023-11-18T04:06:48;4.43;;;4.03;;
4748;SDS011;2388;53.582;9.962;2023-11-18T04:09:14;4.63;;;4.23;;
4748;SDS011;2388;53.582;9.962;2023-11-18T04:11:39;4.73;;;4.33;;
4748;SDS011;2388;53.582;9.962;2023-11-18T04:14:09;5.23;;;4.73;;
4748;SDS011;2388;53.582;9.962;2023-11-18T04:16:35;5.43;;;4.73;;
4748;SDS011;2388;53.582;9.962;2023-11-18T04:19:02;7.00;;;4.90;;
4748;SDS011;2388;53.582;9.962;2023-11-18T04:21:28;4.60;;;4.20;;
4748;SDS011;2388;53.582;9.962;2023-11-18T04:23:54;5.30;;;4.63;;
4748;SDS011;2388;53.582;9.962;2023-11-18T04:26:19;5.23;;;4.73;;
4748;SDS011;2388;53.582;9.962;2023-11-18T04:28:45;4.70;;;4.23;;
4748;SDS011;2388;53.582;9.962;2023-11-18T04:31:10;4.53;;;4.10;;
4748;SDS011;2388;53.582;9.962;2023-11-18T04:33:36;5.20;;;4.80;;
4748;SDS011;2388;53.582;9.962;2023-11-18T04:36:02;5.20;;;4.67;;
4748;SDS011;2388;53.582;9.962;2023-11-18T04:38:30;4.33;;;3.93;;
4748;SDS011;2388;53.582;9.962;2023-11-18T04:40:56;5.23;;;4.73;;
4748;SDS011;2388;53.582;9.962;2023-11-18T04:43:22;5.10;;;4.60;;
4748;SDS011;2388;53.582;9.962;2023-11-18T04:45:48;5.60;;;5.10;;
4748;SDS011;2388;53.582;9.962;2023-11-18T04:48:14;5.23;;;4.73;;
4748;SDS011;2388;53.582;9.962;2023-11-18T04:50:40;5.47;;;4.97;;
4748;SDS011;2388;53.582;9.962;2023-11-18T04:53:07;5.20;;;4.80;;
4748;SDS011;2388;53.582;9.962;2023-11-18T04:55:38;7.43;;;5.63;;
4748;SDS011;2388;53.582;9.962;2023-11-18T04:58:04;4.93;;;4.50;;
4748;SDS011;2388;53.582;9.962;2023-11-18T05:00:31;5.83;;;5.00;;
4748;SDS011;2388;53.582;9.962;2023-11-18T05:02:58;6.00;;;5.37;;
4748;SDS011;2388;53.582;9.962;2023-11-18T05:05:23;5.23;;;4.67;;
4748;SDS011;2388;53.582;9.962;2023-11-18T05:07:49;5.30;;;4.80;;
4748;SDS011;2388;53.582;9.962;2023-11-18T05:10:14;6.07;;;5.37;;
4748;SDS011;2388;53.582;9.962;2023-11-18T05:12:40;4.80;;;4.40;;
4748;SDS011;2388;53.582;9.962;2023-11-18T05:15:06;4.70;;;4.23;;
4748;SDS011;2388;53.582;9.962;2023-11-18T05:17:41;5.00;;;4.50;;
4748;SDS011;2388;53.582;9.962;2023-11-18T05:20:07;5.20;;;4.70;;
4748;SDS011;2388;53.582;9.962;2023-11-18T05:22:34;5.77;;;4.80;;
4748;SDS011;2388;53.582;9.962;2023-11-18T05:25:01;5.30;;;4.80;;
4748;SDS011;2388;53.582;9.962;2023-11-18T05:27:27;5.77;;;5.20;;
4748;SDS011;2388;53.582;9.962;2023-11-18T05:29:53;4.80;;;4.40;;
4748;SDS011;2388;53.582;9.962;2023-11-18T05:32:24;6.63;;;5.43;;
4748;SDS011;2388;53.582;9.962;2023-11-18T05:34:52;8.00;;;5.43;;
4748;SDS011;2388;53.582;9.962;2023-11-18T05:37:19;6.90;;;5.30;;
4748;SDS011;2388;53.582;9.962;2023-11-18T05:39:45;4.87;;;4.50;;
4748;SDS011;2388;53.582;9.962;2023-11-18T05:42:11;5.07;;;4.57;;
4748;SDS011;2388;53.582;9.962;2023-11-18T05:44:37;5.53;;;4.90;;
4748;SDS011;2388;53.582;9.962;2023-11-18T05:47:04;6.57;;;5.73;;
4748;SDS011;2388;53.582;9.962;2023-11-18T05:49:31;5.00;;;4.60;;
4748;SDS011;2388;53.582;9.962;2023-11-18T05:51:58;10.20;;;5.17;;
4748;SDS011;2388;53.582;9.962;2023-11-18T05:54:23;5.23;;;4.77;;
4748;SDS011;2388;53.582;9.962;2023-11-18T05:56:49;6.10;;;5.50;;
4748;SDS011;2388;53.582;9.962;2023-11-18T05:59:15;5.47;;;4.97;;
4748;SDS011;2388;53.582;9.962;2023-11-18T06:01:40;6.17;;;5.57;;
4748;SDS011;2388;53.582;9.962;2023-11-18T06:04:06;7.23;;;5.70;;
4748;SDS011;2388;53.582;9.962;2023-11-18T06:06:34;6.03;;;5.07;;
4748;SDS011;2388;53.582;9.962;2023-11-18T06:09:02;6.77;;;6.07;;
4748;SDS011;2388;53.582;9.962;2023-11-18T06:11:33;7.90;;;5.70;;
4748;SDS011;2388;53.582;9.962;2023-11-18T06:13:59;5.27;;;4.57;;
4748;SDS011;2388;53.582;9.962;2023-11-18T06:16:25;4.60;;;4.20;;
4748;SDS011;2388;53.582;9.962;2023-11-18T06:18:52;6.13;;;5.10;;
4748;SDS011;2388;53.582;9.962;2023-11-18T06:21:19;6.37;;;4.97;;
4748;SDS011;2388;53.582;9.962;2023-11-18T06:23:49;5.70;;;5.10;;
4748;SDS011;2388;53.582;9.962;2023-11-18T06:26:15;9.97;;;5.80;;
4748;SDS011;2388;53.582;9.962;2023-11-18T06:28:41;7.20;;;5.17;;
4748;SDS011;2388;53.582;9.962;2023-11-18T06:31:08;6.60;;;5.40;;
4748;SDS011;2388;53.582;9.962;2023-11-18T06:33:40;6.40;;;5.50;;
4748;SDS011;2388;53.582;9.962;2023-11-18T06:38:44;6.57;;;5.60;;
4748;SDS011;2388;53.582;9.962;2023-11-18T06:41:10;7.07;;;5.90;;
4748;SDS011;2388;53.582;9.962;2023-11-18T06:43:41;6.20;;;5.57;;
4748;SDS011;2388;53.582;9.962;2023-11-18T06:46:19;5.73;;;5.13;;
4748;SDS011;2388;53.582;9.962;2023-11-18T06:48:47;6.03;;;5.53;;
4748;SDS011;2388;53.582;9.962;2023-11-18T06:51:19;8.80;;;6.10;;
4748;SDS011;2388;53.582;9.962;2023-11-18T06:53:49;7.03;;;5.80;;
4748;SDS011;2388;53.582;9.962;2023-11-18T06:56:24;6.20;;;5.50;;
4748;SDS011;2388;53.582;9.962;2023-11-18T06:58:51;8.73;;;6.40;;
4748;SDS011;2388;53.582;9.962;2023-11-18T07:01:16;8.87;;;6.43;;
4748;SDS011;2388;53.582;9.962;2023-11-18T07:03:43;6.43;;;5.83;;
4748;SDS011;2388;53.582;9.962;2023-11-18T07:06:09;7.17;;;5.87;;
4748;SDS011;2388;53.582;9.962;2023-11-18T07:08:36;7.30;;;6.20;;
4748;SDS011;2388;53.582;9.962;2023-11-18T07:11:05;7.53;;;6.10;;
4748;SDS011;2388;53.582;9.962;2023-11-18T07:13:31;6.10;;;5.50;;
4748;SDS011;2388;53.582;9.962;2023-11-18T07:15:59;7.03;;;6.33;;
4748;SDS011;2388;53.582;9.962;2023-11-18T07:18:28;10.63;;;6.90;;
4748;SDS011;2388;53.582;9.962;2023-11-18T07:20:56;8.50;;;6.13;;
4748;SDS011;2388;53.582;9.962;2023-11-18T07:23:22;18.40;;;10.87;;
4748;SDS011;2388;53.582;9.962;2023-11-18T07:25:48;22.17;;;15.40;;
4748;SDS011;2388;53.582;9.962;2023-11-18T07:28:13;21.40;;;14.27;;
4748;SDS011;2388;53.582;9.962;2023-11-18T07:30:40;16.43;;;12.40;;
4748;SDS011;2388;53.582;9.962;2023-11-18T07:33:12;8.20;;;7.37;;
4748;SDS011;2388;53.582;9.962;2023-11-18T07:35:42;9.37;;;6.93;;
4748;SDS011;2388;53.582;9.962;2023-11-18T07:38:08;7.90;;;6.37;;
4748;SDS011;2388;53.582;9.962;2023-11-18T07:40:34;11.80;;;6.70;;
4748;SDS011;2388;53.582;9.962;2023-11-18T07:43:00;9.07;;;6.40;;
4748;SDS011;2388;53.582;9.962;2023-11-18T07:45:26;9.00;;;7.00;;
4748;SDS011;2388;53.582;9.962;2023-11-18T07:47:54;10.97;;;7.50;;
4748;SDS011;2388;53.582;9.962;2023-11-18T07:50:20;8.77;;;6.80;;
4748;SDS011;2388;53.582;9.962;2023-11-18T07:52:49;9.60;;;7.27;;
4748;SDS011;2388;53.582;9.962;2023-11-18T07:55:15;8.30;;;6.50;;
4748;SDS011;2388;53.582;9.962;2023-11-18T07:57:41;10.53;;;6.67;;
4748;SDS011;2388;53.582;9.962;2023-11-18T08:00:07;9.17;;;6.17;;
4748;SDS011;2388;53.582;9.962;2023-11-18T08:02:36;8.67;;;6.50;;
4748;SDS011;2388;53.582;9.962;2023-11-18T08:05:03;7.80;;;6.67;;
4748;SDS011;2388;53.582;9.962;2023-11-18T08:07:32;10.80;;;6.40;;
4748;SDS011;2388;53.582;9.962;2023-11-18T08:09:59;10.40;;;7.30;;
4748;SDS011;2388;53.582;9.962;2023-11-18T08:12:24;9.30;;;7.23;;
4748;SDS011;2388;53.582;9.962;2023-11-18T08:14:50;10.60;;;6.23;;
4748;SDS011;2388;53.582;9.962;2023-11-18T08:17:15;8.50;;;6.10;;
4748;SDS011;2388;53.582;9.962;2023-11-18T08:19:41;7.47;;;6.27;;
4748;SDS011;2388;53.582;9.962;2023-11-18T08:22:06;6.80;;;5.50;;
4748;SDS011;2388;53.582;9.962;2023-11-18T08:24:34;7.03;;;5.30;;
4748;SDS011;2388;53.582;9.962;2023-11-18T08:26:59;9.67;;;5.20;;
4748;SDS011;2388;53.582;9.962;2023-11-18T08:29:28;6.20;;;5.23;;
4748;SDS011;2388;53.582;9.962;2023-11-18T08:31:56;17.83;;;5.77;;
4748;SDS011;2388;53.582;9.962;2023-11-18T08:34:22;7.93;;;5.00;;
4748;SDS011;2388;53.582;9.962;2023-11-18T08:36:49;5.47;;;4.87;;
4748;SDS011;2388;53.582;9.962;2023-11-18T08:39:16;7.57;;;6.07;;
4748;SDS011;2388;53.582;9.962;2023-11-18T08:41:44;6.10;;;4.33;;
4748;SDS011;2388;53.582;9.962;2023-11-18T08:44:10;6.07;;;4.47;;
4748;SDS011;2388;53.582;9.962;2023-11-18T08:46:38;6.00;;;4.63;;
4748;SDS011;2388;53.582;9.962;2023-11-18T08:49:04;15.20;;;4.83;;
4748;SDS011;2388;53.582;9.962;2023-11-18T08:51:35;5.70;;;4.00;;
4748;SDS011;2388;53.582;9.962;2023-11-18T08:54:08;10.93;;;4.67;;
4748;SDS011;2388;53.582;9.962;2023-11-18T08:56:50;7.87;;;4.90;;
4748;SDS011;2388;53.582;9.962;2023-11-18T08:59:17;7.83;;;4.67;;
4748;SDS011;2388;53.582;9.962;2023-11-18T09:01:49;6.30;;;5.00;;
4748;SDS011;2388;53.582;9.962;2023-11-18T09:04:24;3.90;;;3.60;;
4748;SDS011;2388;53.582;9.962;2023-11-18T09:06:50;6.23;;;4.13;;
4748;SDS011;2388;53.582;9.962;2023-11-18T09:09:20;4.43;;;4.03;;
4748;SDS011;2388;53.582;9.962;2023-11-18T09:11:53;4.73;;;3.90;;
4748;SDS011;2388;53.582;9.962;2023-11-18T09:14:21;5.03;;;4.30;;
4748;SDS011;2388;53.582;9.962;2023-11-18T09:16:47;4.97;;;4.47;;
4748;SDS011;2388;53.582;9.962;2023-11-18T09:19:12;7.33;;;4.47;;
4748;SDS011;2388;53.582;9.962;2023-11-18T09:21:39;4.50;;;4.00;;
4748;SDS011;2388;53.582;9.962;2023-11-18T09:24:05;8.37;;;4.80;;
4748;SDS011;2388;53.582;9.962;2023-11-18T09:26:35;5.80;;;4.40;;
4748;SDS011;2388;53.582;9.962;2023-11-18T09:29:01;7.70;;;5.17;;
4748;SDS011;2388;53.582;9.962;2023-11-18T09:31:26;7.03;;;5.40;;
4748;SDS011;2388;53.582;9.962;2023-11-18T09:33:52;7.83;;;5.10;;
4748;SDS011;2388;53.582;9.962;2023-11-18T09:36:18;5.80;;;5.30;;
4748;SDS011;2388;53.582;9.962;2023-11-18T09:38:45;7.60;;;5.77;;
4748;SDS011;2388;53.582;9.962;2023-11-18T09:41:11;9.80;;;5.00;;
4748;SDS011;2388;53.582;9.962;2023-11-18T09:46:24;9.83;;;5.10;;
4748;SDS011;2388;53.582;9.962;2023-11-18T09:48:52;8.17;;;4.03;;
4748;SDS011;2388;53.582;9.962;2023-11-18T09:51:27;5.87;;;5.30;;
4748;SDS011;2388;53.582;9.962;2023-11-18T09:54:00;4.87;;;3.93;;
4748;SDS011;2388;53.582;9.962;2023-11-18T09:56:31;5.57;;;4.33;;
4748;SDS011;2388;53.582;9.962;2023-11-18T09:59:31;5.97;;;5.00;;
4748;SDS011;2388;53.582;9.962;2023-11-18T10:01:59;6.97;;;4.70;;
4748;SDS011;2388;53.582;9.962;2023-11-18T10:04:29;4.87;;;4.47;;
4748;SDS011;2388;53.582;9.962;2023-11-18T10:06:56;4.43;;;3.90;;
4748;SDS011;2388;53.582;9.962;2023-11-18T10:09:25;5.80;;;5.20;;
4748;SDS011;2388;53.582;9.962;2023-11-18T10:12:02;6.23;;;4.30;;
4748;SDS011;2388;53.582;9.962;2023-11-18T10:14:32;4.70;;;4.07;;
4748;SDS011;2388;53.582;9.962;2023-11-18T10:17:07;5.00;;;4.40;;
4748;SDS011;2388;53.582;9.962;2023-11-18T10:19:49;6.40;;;4.03;;
4748;SDS011;2388;53.582;9.962;2023-11-18T10:22:22;3.97;;;3.60;;
4748;SDS011;2388;53.582;9.962;2023-11-18T10:24:51;5.33;;;4.10;;
4748;SDS011;2388;53.582;9.962;2023-11-18T10:27:20;3.30;;;3.00;;
4748;SDS011;2388;53.582;9.962;2023-11-18T10:29:48;5.67;;;3.47;;
4748;SDS011;2388;53.582;9.962;2023-11-18T10:32:14;3.50;;;2.67;;
4748;SDS011;2388;53.582;9.962;2023-11-18T10:34:45;4.27;;;3.43;;
4748;SDS011;2388;53.582;9.962;2023-11-18T10:37:14;3.80;;;2.60;;
4748;SDS011;2388;53.582;9.962;2023-11-18T10:39:41;2.67;;;2.47;;
4748;SDS011;2388;53.582;9.962;2023-11-18T10:42:13;2.67;;;2.47;;
4748;SDS011;2388;53.582;9.962;2023-11-18T10:44:51;2.60;;;2.03;;
4748;SDS011;2388;53.582;9.962;2023-11-18T10:47:22;3.90;;;3.03;;
4748;SDS011;2388;53.582;9.962;2023-11-18T10:49:50;6.40;;;4.33;;
4748;SDS011;2388;53.582;9.962;2023-11-18T10:52:16;4.30;;;3.00;;
4748;SDS011;2388;53.582;9.962;2023-11-18T10:54:51;5.30;;;3.70;;
4748;SDS011;2388;53.582;9.962;2023-11-18T10:57:21;5.20;;;3.60;;
4748;SDS011;2388;53.582;9.962;2023-11-18T11:00:03;28.80;;;18.53;;
4748;SDS011;2388;53.582;9.962;2023-11-18T11:02:38;3.50;;;3.20;;
4748;SDS011;2388;53.582;9.962;2023-11-18T11:05:06;3.40;;;2.90;;
4748;SDS011;2388;53.582;9.962;2023-11-18T11:07:41;3.80;;;3.13;;
4748;SDS011;2388;53.582;9.962;2023-11-18T11:10:08;5.67;;;3.13;;
4748;SDS011;2388;53.582;9.962;2023-11-18T11:12:35;2.83;;;2.63;;
4748;SDS011;2388;53.582;9.962;2023-11-18T11:15:17;7.53;;;2.93;;
4748;SDS011;2388;53.582;9.962;2023-11-18T11:17:48;2.90;;;2.60;;
4748;SDS011;2388;53.582;9.962;2023-11-18T11:20:21;2.27;;;2.17;;
4748;SDS011;2388;53.582;9.962;2023-11-18T11:25:40;3.67;;;3.30;;
4748;SDS011;2388;53.582;9.962;2023-11-18T11:28:16;6.63;;;2.70;;
4748;SDS011;2388;53.582;9.962;2023-11-18T11:30:46;2.97;;;2.70;;
4748;SDS011;2388;53.582;9.962;2023-11-18T11:33:49;3.60;;;3.30;;
4748;SDS011;2388;53.582;9.962;2023-11-18T11:36:25;3.23;;;3.00;;
4748;SDS011;2388;53.582;9.962;2023-11-18T11:38:59;3.13;;;2.93;;
4748;SDS011;2388;53.582;9.962;2023-11-18T11:41:26;2.87;;;2.67;;
4748;SDS011;2388;53.582;9.962;2023-11-18T11:43:53;3.33;;;3.10;;
4748;SDS011;2388;53.582;9.962;2023-11-18T11:46:20;3.27;;;2.97;;
4748;SDS011;2388;53.582;9.962;2023-11-18T11:48:48;3.60;;;3.30;;
4748;SDS011;2388;53.582;9.962;2023-11-18T11:54:11;4.53;;;3.60;;
4748;SDS011;2388;53.582;9.962;2023-11-18T11:56:47;3.80;;;3.40;;
4748;SDS011;2388;53.582;9.962;2023-11-18T12:02:12;4.93;;;4.03;;
4748;SDS011;2388;53.582;9.962;2023-11-18T12:04:43;4.00;;;3.60;;
4748;SDS011;2388;53.582;9.962;2023-11-18T12:07:09;4.33;;;4.03;;
4748;SDS011;2388;53.582;9.962;2023-11-18T12:09:35;3.93;;;3.47;;
4748;SDS011;2388;53.582;9.962;2023-11-18T12:12:05;3.63;;;3.43;;
4748;SDS011;2388;53.582;9.962;2023-11-18T12:14:56;4.20;;;3.67;;
4748;SDS011;2388;53.582;9.962;2023-11-18T12:20:40;3.20;;;3.00;;
4748;SDS011;2388;53.582;9.962;2023-11-18T12:23:07;8.50;;;3.20;;
4748;SDS011;2388;53.582;9.962;2023-11-18T12:25:39;3.70;;;3.40;;
4748;SDS011;2388;53.582;9.962;2023-11-18T12:28:09;4.60;;;2.90;;
4748;SDS011;2388;53.582;9.962;2023-11-18T12:30:39;4.67;;;3.03;;
4748;SDS011;2388;53.582;9.962;2023-11-18T12:33:08;3.33;;;3.03;;
4748;SDS011;2388;53.582;9.962;2023-11-18T12:41:37;3.27;;;2.90;;
4748;SDS011;2388;53.582;9.962;2023-11-18T12:44:10;3.63;;;3.30;;
4748;SDS011;2388;53.582;9.962;2023-11-18T12:46:54;3.10;;;2.90;;
4748;SDS011;2388;53.582;9.962;2023-11-18T12:49:46;3.10;;;2.27;;
4748;SDS011;2388;53.582;9.962;2023-11-18T12:52:19;2.87;;;2.67;;
4748;SDS011;2388;53.582;9.962;2023-11-18T12:54:46;3.00;;;2.80;;
4748;SDS011;2388;53.582;9.962;2023-11-18T12:57:16;3.07;;;2.87;;
4748;SDS011;2388;53.582;9.962;2023-11-18T12:59:44;2.57;;;2.33;;
4748;SDS011;2388;53.582;9.962;2023-11-18T13:02:11;3.70;;;2.47;;
4748;SDS011;2388;53.582;9.962;2023-11-18T13:04:44;2.57;;;2.03;;
4748;SDS011;2388;53.582;9.962;2023-11-18T13:07:14;3.83;;;3.07;;
4748;SDS011;2388;53.582;9.962;2023-11-18T13:09:42;2.47;;;2.27;;
4748;SDS011;2388;53.582;9.962;2023-11-18T13:12:10;2.40;;;2.20;;
4748;SDS011;2388;53.582;9.962;2023-11-18T13:14:39;2.63;;;2.50;;
4748;SDS011;2388;53.582;9.962;2023-11-18T13:17:10;2.20;;;2.00;;
4748;SDS011;2388;53.582;9.962;2023-11-18T13:19:38;4.03;;;2.27;;
4748;SDS011;2388;53.582;9.962;2023-11-18T13:22:08;2.50;;;2.00;;
4748;SDS011;2388;53.582;9.962;2023-11-18T13:24:35;3.03;;;2.20;;
4748;SDS011;2388;53.582;9.962;2023-11-18T13:27:01;2.63;;;2.43;;
4748;SDS011;2388;53.582;9.962;2023-11-18T13:29:31;1.93;;;1.83;;
4748;SDS011;2388;53.582;9.962;2023-11-18T13:31:59;4.50;;;2.40;;
4748;SDS011;2388;53.582;9.962;2023-11-18T13:34:30;4.17;;;2.70;;
4748;SDS011;2388;53.582;9.962;2023-11-18T13:36:58;2.47;;;2.10;;
4748;SDS011;2388;53.582;9.962;2023-11-18T13:39:24;2.23;;;2.13;;
4748;SDS011;2388;53.582;9.962;2023-11-18T13:41:52;2.87;;;2.67;;
4748;SDS011;2388;53.582;9.962;2023-11-18T13:44:34;2.70;;;2.50;;
4748;SDS011;2388;53.582;9.962;2023-11-18T13:47:04;2.53;;;2.37;;
4748;SDS011;2388;53.582;9.962;2023-11-18T13:49:30;2.70;;;2.50;;
4748;SDS011;2388;53.582;9.962;2023-11-18T13:51:57;5.80;;;2.77;;
4748;SDS011;2388;53.582;9.962;2023-11-18T13:54:23;3.20;;;2.90;;
4748;SDS011;2388;53.582;9.962;2023-11-18T13:56:50;3.03;;;2.80;;
4748;SDS011;2388;53.582;9.962;2023-11-18T13:59:16;2.63;;;2.43;;
4748;SDS011;2388;53.582;9.962;2023-11-18T14:01:42;2.87;;;2.67;;
4748;SDS011;2388;53.582;9.962;2023-11-18T14:04:07;4.50;;;3.30;;
4748;SDS011;2388;53.582;9.962;2023-11-18T14:06:35;3.10;;;2.80;;
4748;SDS011;2388;53.582;9.962;2023-11-18T14:09:02;3.50;;;3.20;;
4748;SDS011;2388;53.582;9.962;2023-11-18T14:11:29;3.37;;;3.07;;
4748;SDS011;2388;53.582;9.962;2023-11-18T14:13:55;3.47;;;3.00;;
4748;SDS011;2388;53.582;9.962;2023-11-18T14:16:20;3.77;;;3.47;;
4748;SDS011;2388;53.582;9.962;2023-11-18T14:18:48;3.20;;;3.00;;
4748;SDS011;2388;53.582;9.962;2023-11-18T14:21:14;3.47;;;3.17;;
4748;SDS011;2388;53.582;9.962;2023-11-18T14:23:40;3.20;;;2.97;;
4748;SDS011;2388;53.582;9.962;2023-11-18T14:26:06;3.97;;;3.60;;
4748;SDS011;2388;53.582;9.962;2023-11-18T14:28:32;3.60;;;3.30;;
4748;SDS011;2388;53.582;9.962;2023-11-18T14:30:59;3.33;;;3.13;;
4748;SDS011;2388;53.582;9.962;2023-11-18T14:33:26;4.10;;;3.70;;
4748;SDS011;2388;53.582;9.962;2023-11-18T14:35:53;3.43;;;3.23;;
4748;SDS011;2388;53.582;9.962;2023-11-18T14:38:18;3.40;;;3.10;;
4748;SDS011;2388;53.582;9.962;2023-11-18T14:40:45;4.73;;;3.80;;
4748;SDS011;2388;53.582;9.962;2023-11-18T14:43:13;4.03;;;3.37;;
4748;SDS011;2388;53.582;9.962;2023-11-18T14:45:40;6.57;;;3.40;;
4748;SDS011;2388;53.582;9.962;2023-11-18T14:48:05;5.07;;;3.00;;
4748;SDS011;2388;53.582;9.962;2023-11-18T14:50:31;3.13;;;2.93;;
4748;SDS011;2388;53.582;9.962;2023-11-18T14:52:56;5.33;;;3.70;;
4748;SDS011;2388;53.582;9.962;2023-11-18T14:55:28;4.70;;;3.57;;
4748;SDS011;2388;53.582;9.962;2023-11-18T14:57:54;5.90;;;4.30;;
4748;SDS011;2388;53.582;9.962;2023-11-18T15:00:20;3.97;;;3.67;;
4748;SDS011;2388;53.582;9.962;2023-11-18T15:02:57;4.50;;;4.10;;
4748;SDS011;2388;53.582;9.962;2023-11-18T15:05:22;9.30;;;3.70;;
4748;SDS011;2388;53.582;9.962;2023-11-18T15:07:49;5.50;;;4.30;;
4748;SDS011;2388;53.582;9.962;2023-11-18T15:10:16;3.80;;;3.50;;
4748;SDS011;2388;53.582;9.962;2023-11-18T15:12:49;3.80;;;3.50;;
4748;SDS011;2388;53.582;9.962;2023-11-18T15:15:23;3.93;;;3.37;;
4748;SDS011;2388;53.582;9.962;2023-11-18T15:17:56;4.30;;;3.40;;
4748;SDS011;2388;53.582;9.962;2023-11-18T15:20:23;3.57;;;3.27;;
4748;SDS011;2388;53.582;9.962;2023-11-18T15:22:49;3.37;;;3.17;;
4748;SDS011;2388;53.582;9.962;2023-11-18T15:25:15;3.80;;;3.50;;
4748;SDS011;2388;53.582;9.962;2023-11-18T15:27:42;3.00;;;2.80;;
4748;SDS011;2388;53.582;9.962;2023-11-18T15:30:10;2.80;;;2.60;;
4748;SDS011;2388;53.582;9.962;2023-11-18T15:32:43;2.53;;;2.33;;
4748;SDS011;2388;53.582;9.962;2023-11-18T15:35:10;3.37;;;2.87;;
4748;SDS011;2388;53.582;9.962;2023-11-18T15:37:37;2.63;;;2.30;;
4748;SDS011;2388;53.582;9.962;2023-11-18T15:40:06;2.60;;;2.43;;
4748;SDS011;2388;53.582;9.962;2023-11-18T15:42:36;3.77;;;2.90;;
4748;SDS011;2388;53.582;9.962;2023-11-18T15:45:03;4.60;;;2.97;;
4748;SDS011;2388;53.582;9.962;2023-11-18T15:47:29;4.27;;;3.50;;
4748;SDS011;2388;53.582;9.962;2023-11-18T15:49:55;4.83;;;3.90;;